• Join FlightAware (Why Join?)
  • Login
  • US Flag 
09:38PM EDT


 

Airport Tracker/Info


-or-


 

Live Flight TrackerFlight Track Log ✈ SKW5619 ✈ 01-Jun-2013 ✈ KAUS - KDEN

Flight Track Log - Related Links

Times and Time Zones

All times are in EDT time to prevent confusion due to time zone crossing. See the SKW5619 flight status page for this flight to view local times or setup timezone preferences in your user account.

Time Position Orientation Groundspeed Altitude Reporting Facility
EDT Latitude Longitude Course Direction KTS MPH feet Rate Location/Type
04:31PM 30.1467 -97.7567 291° West 240 276 4,300  Level Houston Center
04:32PM 30.4494 -97.7607 293° West  Level FlightAware Approximate
04:32PM 30.2044 -97.8189 317° Northwest 272 313 7,200  Level Houston Center
04:33PM 30.4940 -97.8834 293° West  Level FlightAware Approximate
04:33PM 30.2647 -97.8925 313° West 285 328 9,700  Level Houston Center
04:34PM 30.5359 -98.0073 291° West  Level FlightAware Approximate
04:34PM 30.3156 -97.9775 305° West 297 342 12,200  Level Houston Center
04:35PM 30.5773 -98.1316 291° West  Level FlightAware Approximate
04:35PM 30.3664 -98.0617 305° West 308 354 14,200  Level Houston Center
04:36PM 30.6186 -98.2559 291° West  Level FlightAware Approximate
04:36PM 30.4186 -98.1497 305° West 325 374 16,400  Level Houston Center
04:37PM 30.4714 -98.2372 305° West 328 377 18,800 2,040 Climbing Houston Center
04:38PM 30.5367 -98.3161 314° West 340 391 20,700 1,740 Climbing Houston Center
04:39PM 30.6164 -98.3778 326° Northwest 341 392 22,400 1,500 Climbing Houston Center
04:40PM 30.7011 -98.4439 326° Northwest 356 410 23,900 1,440 Climbing Houston Center
04:41PM 30.7914 -98.5128 327° Northwest 376 433 25,400 1,440 Climbing Houston Center
04:42PM 30.8822 -98.5828 327° Northwest 386 444 26,900 1,440 Climbing Houston Center
04:43PM 30.9717 -98.6544 326° Northwest 386 444 28,400 1,320 Climbing Houston Center
04:44PM 31.0642 -98.7267 326° Northwest 393 452 29,700 1,140 Climbing Houston Center
04:45PM 31.1739 -98.8133 326° Northwest 402 463 30,800 960 Climbing Houston Center
04:46PM 31.2717 -98.8903 326° Northwest 415 478 31,700 960 Climbing Houston Center
04:47PM 31.3703 -98.9675 326° Northwest 419 482 32,900 1,020 Climbing Houston Center
04:48PM 31.4678 -99.0450 326° Northwest 420 483 33,900 960 Climbing Houston Center
04:49PM 31.5553 -99.1353 319° Northwest 423 487 35,000 1,200 Climbing Houston Center
04:50PM 31.6008 -99.2533 294° West 396 456 36,500 1,200 Climbing Houston Center
04:51PM 31.6731 -99.3478 312° West 405 466 37,600 720 Climbing Houston Center
04:52PM 31.7708 -99.4136 330° Northwest 403 464 38,000 180 Climbing Houston Center
04:53PM 31.8881 -99.4867 332° Northwest 405 466 38,000  Level Houston Center
04:55PM 31.9925 -99.5567 330° Northwest 399 459 38,000  Level Fort Worth Center
04:56PM 32.0814 -99.6128 332° Northwest 399 459 38,000  Level Fort Worth Center
04:57PM 32.1806 -99.6717 333° Northwest 394 453 38,000  Level Fort Worth Center
04:58PM 32.2794 -99.7381 330° Northwest 394 453 38,000  Level Fort Worth Center
04:59PM 32.3847 -99.8022 333° Northwest 406 467 38,000  Level Fort Worth Center
05:00PM 32.4878 -99.8689 331° Northwest 417 480 38,000  Level Fort Worth Center
05:01PM 32.5908 -99.9358 331° Northwest 417 480 38,000  Level Fort Worth Center
05:02PM 32.6961 -100.0006 333° Northwest 417 480 38,000  Level Fort Worth Center
05:03PM 32.8050 -100.0753 330° Northwest 432 497 38,000  Level Fort Worth Center
05:04PM 32.9081 -100.1403 332° Northwest 432 497 38,000  Level Fort Worth Center
05:05PM 33.0192 -100.2106 332° Northwest 427 491 38,000  Level Fort Worth Center
05:06PM 33.1242 -100.2783 332° Northwest 427 491 38,000  Level Fort Worth Center
05:07PM 33.2289 -100.3464 331° Northwest 427 491 38,000  Level Fort Worth Center
05:08PM 33.3317 -100.4167 330° Northwest 427 491 38,000  Level Fort Worth Center
05:09PM 33.4344 -100.4825 332° Northwest 427 491 38,000  Level Fort Worth Center
05:10PM 33.5392 -100.5536 330° Northwest 427 491 38,000  Level Fort Worth Center
05:11PM 33.6397 -100.6194 331° Northwest 422 486 38,000  Level Fort Worth Center
05:12PM 33.7444 -100.6858 332° Northwest 422 486 38,000  Level Fort Worth Center
05:13PM 33.8450 -100.7544 330° Northwest 417 480 38,000  Level Fort Worth Center
05:14PM 33.9433 -100.8158 333° Northwest 412 474 38,000  Level Fort Worth Center
05:15PM 34.0436 -100.8875 329° Northwest 412 474 38,000  Level Fort Worth Center
05:17PM 34.2728 -101.0394 331° Northwest 413 475 38,000  Level Albuquerque Center
05:18PM 34.3728 -101.1050 332° Northwest 411 473 38,000  Level Albuquerque Center
05:19PM 34.4717 -101.1742 330° Northwest 410 472 38,000  Level Albuquerque Center
05:20PM 34.5706 -101.2419 331° Northwest 409 471 38,000  Level Albuquerque Center
05:21PM 34.6686 -101.3081 331° Northwest 407 468 38,000  Level Albuquerque Center
05:22PM 34.7867 -101.3886 331° Northwest 406 467 38,000  Level Albuquerque Center
05:23PM 34.8853 -101.4564 331° Northwest 406 467 38,000  Level Albuquerque Center
05:24PM 34.9761 -101.5192 330° Northwest 403 464 38,000  Level Albuquerque Center
05:25PM 35.0775 -101.5869 331° Northwest 409 471 38,000  Level Albuquerque Center
05:26PM 35.1747 -101.6550 330° Northwest 406 467 38,000  Level Albuquerque Center
05:27PM 35.2908 -101.7231 334° Northwest 400 460 38,000  Level Albuquerque Center
05:28PM 35.3989 -101.7714 340° North 406 467 38,000  Level Albuquerque Center
05:29PM 35.5031 -101.8203 339° North 402 463 38,000  Level Albuquerque Center
05:30PM 35.6003 -101.8661 339° North 397 457 38,000  Level Albuquerque Center
05:31PM 35.7047 -101.9147 339° North 400 460 38,000  Level Albuquerque Center
05:32PM 35.8092 -101.9631 339° North 401 461 38,000  Level Albuquerque Center
05:33PM 35.9158 -102.0122 340° North 406 467 38,000  Level Albuquerque Center
05:34PM 36.0214 -102.0625 339° North 407 468 38,000  Level Albuquerque Center
05:35PM 36.1469 -102.1217 339° North 405 466 38,000  Level Albuquerque Center
05:36PM 36.2514 -102.1706 339° North 402 463 38,000  Level Albuquerque Center
05:37PM 36.3550 -102.2194 339° North 400 460 38,000  Level Albuquerque Center
05:38PM 36.4586 -102.2675 340° North 398 458 38,000  Level Albuquerque Center
05:39PM 36.5619 -102.3167 339° North 398 458 38,000  Level Albuquerque Center
05:40PM 36.6656 -102.3656 339° North 399 459 38,000  Level Albuquerque Center
05:41PM 36.7697 -102.4169 338° Northwest 402 463 38,000 -120 Level Albuquerque Center
05:42PM 36.8808 -102.4708 339° North 401 461 37,800 -720 Descending Albuquerque Center
05:44PM 36.9981 -102.5275 339° North 403 464 36,600 -900 Descending Albuquerque Center
05:45PM 37.0986 -102.5756 339° North 403 464 36,000 -300 Descending Albuquerque Center
05:46PM 37.1989 -102.6244 339° North 403 464 36,000  Level Albuquerque Center
05:47PM 37.3161 -102.6800 339° North 403 464 36,000  Level Albuquerque Center
05:47PM 37.3992 -102.7206 339° North 405 466 36,000  Level Denver Center
05:48PM 37.5008 -102.7703 339° North 408 470 36,000  Level Denver Center
05:49PM 37.6194 -102.8300 338° Northwest 416 479 36,000  Level Denver Center
05:51PM 37.7119 -102.9000 329° Northwest 410 472 36,000  Level Denver Center
05:52PM 37.8208 -102.9836 329° Northwest 409 471 36,000  Level Denver Center
05:53PM 37.9139 -103.0561 328° Northwest 410 472 36,000 -480 Level Denver Center
05:54PM 38.0222 -103.1392 329° Northwest 408 470 35,100 -960 Descending Denver Center
05:55PM 38.1117 -103.2097 328° Northwest 397 457 34,100 -960 Descending Denver Center
05:56PM 38.2019 -103.2794 329° Northwest 396 456 33,200 -960 Descending Denver Center
05:57PM 38.2925 -103.3506 328° Northwest 398 458 32,200 -600 Descending Denver Center
05:58PM 38.3989 -103.4361 328° Northwest 407 468 32,000 -120 Descending Denver Center
05:59PM 38.5092 -103.5206 329° Northwest 410 472 32,000  Level Denver Center
06:00PM 38.5894 -103.5847 328° Northwest 420 483 32,000 -840 Level Denver Center
06:01PM 38.7186 -103.6881 328° Northwest 429 494 30,400 -2,280 Descending Denver Center
06:02PM 38.8150 -103.7650 328° Northwest 426 490 27,400 -2,940 Descending Denver Center
06:03PM 38.9072 -103.8369 329° Northwest 404 465 24,400 -2,940 Descending Denver Center
06:04PM 38.9961 -103.9094 328° Northwest 385 443 21,400 -2,640 Descending Denver Center
06:05PM 39.0697 -103.9703 327° Northwest 391 450 19,000 -2,160 Descending Denver Center
06:06PM 39.1939 -104.0697 328° Northwest 372 428 17,000 -960 Descending Denver Center
06:07PM 39.2631 -104.1356 324° Northwest 320 368 16,900 -780 Descending Denver Center
06:08PM 39.3256 -104.2406 308° West 303 349 15,300 -1,560 Descending Denver Center
06:09PM 39.3778 -104.3169 312° West 284 327 13,800 -1,140 Descending Denver Center
06:10PM 39.4144 -104.3744 310° West 270 311 13,000 -840 Descending Denver Center
06:11PM 39.4831 -104.4544 318° Northwest 274 315 12,100 -1,260 Descending Denver Center
06:12PM 39.5519 -104.5031 331° Northwest 265 305 10,500 -1,440 Descending Denver Center
06:13PM 39.6131 -104.5458 332° Northwest 253 291 9,200 -1,320 Descending Denver Center